Time;durP1;ratioP1;P1;durP2;ratioP2;P2;SDS_P1;SDS_P2;PMS_P1;PMS_P2;Temp;Humidity;BMP_temperature;BMP_pressure;BME280_temperature;BME280_humidity;BME280_pressure;Samples;Min_cycle;Max_cycle;Signal;HPM_P1;HPM_P2
2022/10/29 00:02:40;;;;;;;33.97;6.65;;;;;;;17.98;68.60;101479.69;4910615;28;120067;-76
2022/10/29 00:05:06;;;;;;;27.15;5.80;;;;;;;17.93;68.54;101482.34;4907174;28;120280;-77
2022/10/29 00:07:32;;;;;;;34.55;6.22;;;;;;;17.82;68.54;101479.41;4919951;28;120221;-76
2022/10/29 00:09:58;;;;;;;28.65;6.15;;;;;;;17.79;68.60;101495.03;4924706;28;119954;-76
2022/10/29 00:12:23;;;;;;;39.35;6.53;;;;;;;17.66;68.38;101489.72;4925373;28;120414;-75
2022/10/29 00:14:49;;;;;;;31.35;5.80;;;;;;;17.68;68.78;101503.91;4920462;28;120731;-76
2022/10/29 00:17:15;;;;;;;37.95;5.95;;;;;;;17.58;68.96;101496.91;4923002;28;119895;-76
2022/10/29 00:19:40;;;;;;;26.67;5.45;;;;;;;17.57;68.62;101509.25;4923333;28;120435;-77
2022/10/29 00:22:07;;;;;;;33.30;6.32;;;;;;;17.53;68.65;101507.94;4906404;28;120035;-76
2022/10/29 00:24:33;;;;;;;25.60;5.55;;;;;;;17.48;68.99;101518.44;4908653;28;120476;-77
2022/10/29 00:26:59;;;;;;;35.38;5.55;;;;;;;17.42;68.89;101517.56;4907974;28;122856;-76
2022/10/29 00:29:24;;;;;;;28.45;5.95;;;;;;;17.39;68.97;101517.78;4928460;28;120264;-76
2022/10/29 00:31:50;;;;;;;25.17;5.65;;;;;;;17.35;68.83;101517.19;4925901;28;120350;-76
2022/10/29 00:34:15;;;;;;;27.00;4.82;;;;;;;17.31;68.77;101516.63;4928563;28;120628;-76
2022/10/29 00:36:41;;;;;;;31.50;5.80;;;;;;;17.25;68.73;101513.72;4924162;28;119996;-76
2022/10/29 00:39:14;;;;;;;32.47;5.53;;;;;;;17.16;69.05;101525.69;4927167;28;120133;-76
2022/10/29 00:41:41;;;;;;;25.90;5.05;;;;;;;17.13;68.87;101532.19;4924802;28;120021;-77
2022/10/29 00:44:21;;;;;;;30.25;4.75;;;;;;;17.10;68.87;101524.06;4924057;28;120104;-76
2022/10/29 00:46:51;;;;;;;27.15;5.30;;;;;;;17.05;68.83;101521.94;4912726;28;119950;-76
2022/10/29 00:49:18;;;;;;;33.25;4.97;;;;;;;16.98;68.87;101509.19;4907586;28;120058;-76
2022/10/29 00:51:47;;;;;;;32.35;4.93;;;;;;;16.96;69.13;101508.91;4922870;28;120246;-77
2022/10/29 00:54:15;;;;;;;24.80;4.97;;;;;;;16.94;69.09;101507.84;4906055;28;120706;-76
2022/10/29 00:56:49;;;;;;;31.45;5.40;;;;;;;16.87;68.88;101509.00;4930097;28;120264;-76
2022/10/29 00:59:16;;;;;;;24.45;4.63;;;;;;;16.83;68.83;101506.41;4922481;28;120311;-76
2022/10/29 01:01:43;;;;;;;29.70;4.90;;;;;;;16.82;68.92;101510.41;4924551;28;120148;-76
2022/10/29 01:04:10;;;;;;;29.50;5.55;;;;;;;16.76;68.98;101508.75;4923636;28;120364;-76
2022/10/29 01:06:43;;;;;;;26.13;4.13;;;;;;;16.73;68.77;101520.78;4891450;28;121118;-76
2022/10/29 01:09:32;;;;;;;30.40;5.55;;;;;;;16.66;68.96;101523.91;4896450;28;120288;-76
2022/10/29 01:12:11;;;;;;;27.45;4.50;;;;;;;16.63;68.68;101524.84;4905907;28;120521;-77
2022/10/29 01:14:59;;;;;;;33.60;5.53;;;;;;;16.59;68.92;101527.78;4923171;28;120090;-76
2022/10/29 01:17:39;;;;;;;28.77;4.53;;;;;;;16.55;69.18;101524.41;4921001;28;119607;-76
2022/10/29 01:20:20;;;;;;;25.70;5.20;;;;;;;16.52;69.16;101525.34;4926280;28;119642;-76
2022/10/29 01:23:17;;;;;;;30.45;4.03;;;;;;;16.47;69.39;101529.53;4907534;28;120114;-76
2022/10/29 01:26:04;;;;;;;26.80;4.53;;;;;;;16.41;69.20;101531.44;4925189;28;120036;-76
2022/10/29 01:28:30;;;;;;;26.95;4.35;;;;;;;16.36;69.22;101540.38;4923084;28;121292;-76
2022/10/29 01:31:30;;;;;;;29.13;5.25;;;;;;;16.33;69.50;101552.41;4913321;28;119829;-76
2022/10/29 01:34:21;;;;;;;28.02;5.32;;;;;;;16.24;69.10;101544.13;4920309;28;120311;-76
2022/10/29 01:36:53;;;;;;;25.20;4.57;;;;;;;16.27;69.52;101543.94;4922612;28;120114;-76
2022/10/29 01:39:48;;;;;;;28.40;4.88;;;;;;;16.25;69.48;101540.88;4905791;28;120045;-76
2022/10/29 01:42:19;;;;;;;25.63;4.60;;;;;;;16.20;69.36;101533.22;4906986;28;120681;-76
2022/10/29 01:44:56;;;;;;;24.77;4.67;;;;;;;16.32;69.03;101545.31;4925938;28;119476;-76
2022/10/29 01:47:28;;;;;;;26.40;4.83;;;;;;;16.33;68.63;101546.88;4922058;28;120444;-76
2022/10/29 01:49:59;;;;;;;29.33;4.80;;;;;;;16.42;68.58;101548.81;4904480;28;120245;-76
2022/10/29 01:52:28;;;;;;;28.92;4.57;;;;;;;16.47;67.90;101556.47;4917844;28;120033;-76
2022/10/29 01:54:54;;;;;;;27.77;4.30;;;;;;;16.50;68.26;101559.06;4918173;28;119830;-75
2022/10/29 01:57:31;;;;;;;29.85;4.60;;;;;;;16.53;67.96;101565.66;4919121;28;120076;-76
2022/10/29 02:00:09;;;;;;;31.50;4.78;;;;;;;16.54;67.83;101567.19;4920393;28;120205;-77
2022/10/29 02:03:00;;;;;;;31.33;5.37;;;;;;;16.57;67.76;101555.19;4921921;28;119515;-77
2022/10/29 02:05:29;;;;;;;30.75;4.70;;;;;;;16.56;67.59;101554.44;4922365;28;120647;-77
2022/10/29 02:08:09;;;;;;;31.88;4.78;;;;;;;16.55;67.09;101552.09;4921204;28;119520;-77
2022/10/29 02:10:39;;;;;;;24.63;4.55;;;;;;;16.55;66.92;101554.88;4922516;28;120040;-76
2022/10/29 02:13:32;;;;;;;30.20;4.45;;;;;;;16.49;67.12;101554.00;4921316;28;120413;-76
2022/10/29 02:15:59;;;;;;;28.08;5.20;;;;;;;16.50;67.18;101558.28;4922958;28;120155;-76
2022/10/29 02:18:25;;;;;;;30.23;5.28;;;;;;;16.45;67.00;101545.88;4906594;28;120048;-75
2022/10/29 02:20:51;;;;;;;29.40;5.38;;;;;;;16.42;66.80;101555.13;4921060;28;119945;-76
2022/10/29 02:23:16;;;;;;;26.45;5.38;;;;;;;16.37;66.71;101538.38;4921106;28;120117;-76
2022/10/29 02:25:42;;;;;;;28.27;5.55;;;;;;;16.34;67.03;101547.63;4921052;28;119981;-76
2022/10/29 02:28:08;;;;;;;26.77;5.40;;;;;;;16.23;67.16;101528.75;4925438;28;120517;-76
2022/10/29 02:30:34;;;;;;;31.07;5.73;;;;;;;16.25;67.34;101534.59;4918726;28;120937;-76
2022/10/29 02:32:59;;;;;;;28.50;5.97;;;;;;;16.22;66.54;101541.06;4922187;28;119769;-76
2022/10/29 02:35:25;;;;;;;34.90;5.60;;;;;;;16.18;66.93;101540.47;4919789;28;120739;-75
2022/10/29 02:37:51;;;;;;;26.30;5.37;;;;;;;16.15;67.14;101541.41;4901583;28;119535;-75
2022/10/29 02:40:16;;;;;;;31.00;5.70;;;;;;;16.12;67.26;101539.59;4923070;28;120405;-76
2022/10/29 02:42:42;;;;;;;25.73;5.10;;;;;;;16.02;67.11;101521.47;4921448;28;120066;-77
2022/10/29 02:45:08;;;;;;;31.90;5.70;;;;;;;16.03;67.27;101528.53;4918513;28;120627;-76
2022/10/29 02:47:34;;;;;;;25.63;5.00;;;;;;;16.07;67.39;101535.44;4903680;28;120027;-76
2022/10/29 02:50:02;;;;;;;26.38;5.05;;;;;;;16.07;67.23;101531.91;4924375;28;120321;-76
2022/10/29 02:52:27;;;;;;;26.33;5.35;;;;;;;16.05;67.68;101520.53;4922593;28;120054;-76
2022/10/29 02:54:53;;;;;;;29.45;5.47;;;;;;;16.04;68.24;101522.53;4918614;28;120018;-76
2022/10/29 02:57:19;;;;;;;32.53;6.07;;;;;;;16.07;68.33;101523.59;4923432;28;120235;-76
2022/10/29 02:59:44;;;;;;;29.27;5.50;;;;;;;16.06;68.43;101524.81;4902042;28;120129;-76
2022/10/29 03:02:10;;;;;;;29.33;5.57;;;;;;;16.07;68.18;101529.13;4921830;28;119513;-76
2022/10/29 03:04:38;;;;;;;30.07;5.33;;;;;;;16.08;68.35;101533.44;4922294;28;120022;-75
2022/10/29 03:07:03;;;;;;;27.00;5.23;;;;;;;16.13;68.02;101547.41;4902603;28;119872;-76
2022/10/29 03:09:29;;;;;;;28.10;5.33;;;;;;;16.14;67.92;101556.47;4920707;28;120642;-76
2022/10/29 03:11:55;;;;;;;29.83;5.07;;;;;;;16.14;67.71;101548.19;4924043;28;120072;-76
2022/10/29 03:14:20;;;;;;;28.47;5.27;;;;;;;16.14;67.60;101539.88;4919831;28;119931;-75
2022/10/29 03:16:46;;;;;;;26.83;4.70;;;;;;;16.12;67.10;101545.13;4919556;28;121464;-74
2022/10/29 03:19:12;;;;;;;31.83;5.30;;;;;;;16.12;67.47;101526.50;4922446;28;120005;-75
2022/10/29 03:21:37;;;;;;;29.00;5.18;;;;;;;16.08;67.58;101514.81;4912336;28;119876;-74
2022/10/29 03:24:04;;;;;;;28.25;5.13;;;;;;;16.10;67.54;101528.22;4921042;28;119608;-76
2022/10/29 03:26:30;;;;;;;22.30;4.70;;;;;;;16.12;67.19;101531.28;4918669;28;119898;-75
2022/10/29 03:28:55;;;;;;;24.38;4.63;;;;;;;16.06;67.04;101528.34;4919833;28;120015;-75
2022/10/29 03:31:21;;;;;;;26.63;4.85;;;;;;;16.09;67.71;101526.66;4905015;28;120341;-75
2022/10/29 03:33:47;;;;;;;22.50;4.50;;;;;;;16.07;66.95;101529.13;4923674;28;120654;-76
2022/10/29 03:36:12;;;;;;;23.97;4.70;;;;;;;16.05;67.21;101524.06;4921013;28;120932;-75
2022/10/29 03:38:38;;;;;;;26.17;5.37;;;;;;;16.02;66.72;101516.69;4919009;28;120232;-76
2022/10/29 03:41:09;;;;;;;26.33;4.67;;;;;;;16.02;67.29;101524.22;4918774;28;119994;-75
2022/10/29 03:43:36;;;;;;;23.73;4.53;;;;;;;16.00;66.94;101532.25;4921553;28;120559;-75
2022/10/29 03:46:02;;;;;;;22.65;4.60;;;;;;;16.00;67.30;101538.53;4921236;28;120009;-75
2022/10/29 03:48:29;;;;;;;19.53;4.57;;;;;;;15.93;67.53;101525.03;4903850;28;120351;-74
2022/10/29 03:50:57;;;;;;;21.53;4.53;;;;;;;15.94;67.63;101532.88;4901811;28;120349;-75
2022/10/29 03:53:24;;;;;;;25.73;4.57;;;;;;;15.93;67.31;101531.34;4917845;28;120225;-76
2022/10/29 03:55:53;;;;;;;25.42;4.45;;;;;;;15.93;67.61;101530.59;4923641;28;120615;-75
2022/10/29 03:58:19;;;;;;;27.95;4.72;;;;;;;15.91;67.54;101517.22;4904879;28;119997;-75
2022/10/29 04:00:59;;;;;;;19.13;4.28;;;;;;;15.89;67.20;101519.69;4911264;28;120636;-76
2022/10/29 04:03:32;;;;;;;23.90;4.63;;;;;;;15.83;66.72;101532.59;4918901;28;120764;-76
2022/10/29 04:06:00;;;;;;;28.47;4.77;;;;;;;15.82;66.89;101530.28;4901726;28;120282;-75
2022/10/29 04:08:46;;;;;;;23.45;4.32;;;;;;;15.81;67.76;101534.28;4917112;28;119924;-76
2022/10/29 04:11:13;;;;;;;23.33;4.10;;;;;;;15.76;67.76;101526.63;4915931;28;121220;-75
2022/10/29 04:13:38;;;;;;;23.80;4.40;;;;;;;15.80;68.18;101522.47;4903157;28;119712;-75
2022/10/29 04:16:04;;;;;;;26.67;6.07;;;;;;;15.83;68.35;101515.22;4907226;28;120037;-75
2022/10/29 04:18:48;;;;;;;24.57;5.20;;;;;;;15.81;67.70;101512.94;4898506;28;120301;-75
2022/10/29 04:21:15;;;;;;;26.25;4.80;;;;;;;15.75;67.25;101514.03;4903970;28;120138;-75
2022/10/29 04:23:41;;;;;;;22.03;3.67;;;;;;;15.77;67.46;101526.16;4920343;28;120185;-75
2022/10/29 04:26:06;;;;;;;25.67;3.70;;;;;;;15.74;67.54;101532.63;4886006;28;119951;-75
2022/10/29 04:28:32;;;;;;;22.07;4.20;;;;;;;15.69;67.20;101538.81;4912030;28;119974;-75
2022/10/29 04:31:03;;;;;;;20.10;4.07;;;;;;;15.59;66.88;101545.56;4920214;28;121139;-75
2022/10/29 04:33:45;;;;;;;26.85;5.22;;;;;;;15.55;68.15;101561.53;4905271;28;119808;-74
2022/10/29 04:36:11;;;;;;;26.95;5.00;;;;;;;15.54;68.02;101565.53;4919767;28;120241;-76
2022/10/29 04:38:37;;;;;;;23.33;4.55;;;;;;;15.50;67.58;101573.22;4923990;28;121753;-75
2022/10/29 04:41:03;;;;;;;23.80;4.73;;;;;;;15.48;67.90;101578.44;4921100;28;120064;-75
2022/10/29 04:43:29;;;;;;;24.05;4.38;;;;;;;15.46;68.29;101587.19;4920896;28;120641;-76
2022/10/29 04:45:57;;;;;;;21.07;4.40;;;;;;;15.51;69.04;101586.56;4896663;28;120905;-75
2022/10/29 04:48:24;;;;;;;23.50;4.87;;;;;;;15.52;68.35;101590.09;4919443;28;120239;-75
2022/10/29 04:50:50;;;;;;;25.98;4.63;;;;;;;15.52;68.48;101595.63;4916412;28;120170;-75
2022/10/29 04:53:17;;;;;;;23.20;4.70;;;;;;;15.54;68.06;101593.94;4920856;28;120067;-75
2022/10/29 04:55:43;;;;;;;21.42;5.03;;;;;;;15.55;68.27;101598.25;4918051;28;120188;-75
2022/10/29 04:58:17;;;;;;;27.08;5.07;;;;;;;15.55;68.29;101583.66;4919513;28;120143;-75
2022/10/29 05:00:43;;;;;;;24.48;5.13;;;;;;;15.54;68.40;101576.59;4922052;28;119909;-75
2022/10/29 05:03:09;;;;;;;26.35;5.20;;;;;;;15.53;68.33;101573.06;4905359;28;120291;-75
2022/10/29 05:05:39;;;;;;;20.87;4.67;;;;;;;15.54;67.92;101576.59;4915121;28;119375;-75
2022/10/29 05:08:40;;;;;;;23.20;4.80;;;;;;;15.43;67.44;101576.31;4908514;28;120225;-74
2022/10/29 05:11:06;;;;;;;23.42;4.70;;;;;;;15.44;67.23;101583.38;4918011;28;120214;-75
2022/10/29 05:13:32;;;;;;;23.47;4.80;;;;;;;15.39;67.62;101581.22;4906132;28;120126;-75
2022/10/29 05:15:59;;;;;;;27.23;5.28;;;;;;;15.32;67.88;101588.56;4918851;28;119383;-75
2022/10/29 05:18:25;;;;;;;25.30;5.07;;;;;;;15.31;68.28;101589.81;4908860;28;120882;-75
2022/10/29 05:20:54;;;;;;;24.33;4.60;;;;;;;15.28;68.06;101593.50;4924280;28;119800;-75
2022/10/29 05:23:20;;;;;;;26.60;5.40;;;;;;;15.26;68.57;101584.13;4928510;28;120224;-74
2022/10/29 05:25:48;;;;;;;29.08;4.55;;;;;;;15.26;68.55;101565.56;4925000;28;120476;-76
2022/10/29 05:28:17;;;;;;;25.00;4.82;;;;;;;15.27;68.82;101569.09;4921322;28;120166;-74
2022/10/29 05:30:44;;;;;;;24.10;4.88;;;;;;;15.21;68.54;101568.94;4917238;28;120193;-74
2022/10/29 05:33:17;;;;;;;26.98;5.25;;;;;;;15.18;68.44;101563.56;4922200;28;120366;-75
2022/10/29 05:35:46;;;;;;;22.83;4.57;;;;;;;15.18;68.23;101569.88;4922810;28;119993;-75
2022/10/29 05:38:12;;;;;;;23.20;5.28;;;;;;;15.19;68.23;101579.69;4921606;28;120527;-74
2022/10/29 05:40:39;;;;;;;26.95;5.47;;;;;;;15.15;68.75;101567.25;4905957;28;120114;-74
2022/10/29 05:43:04;;;;;;;29.38;5.88;;;;;;;15.18;68.79;101561.56;4926483;28;120343;-75
2022/10/29 05:45:30;;;;;;;23.98;5.85;;;;;;;15.15;68.62;101554.22;4913185;28;120426;-75
2022/10/29 05:47:57;;;;;;;27.48;5.93;;;;;;;15.12;68.29;101555.09;4921901;28;119971;-75
2022/10/29 05:50:23;;;;;;;25.50;6.10;;;;;;;15.18;68.28;101563.56;4918990;28;120650;-73
2022/10/29 05:52:57;;;;;;;24.50;5.88;;;;;;;15.18;68.24;101572.63;4920735;28;120383;-75
2022/10/29 05:55:23;;;;;;;25.85;5.88;;;;;;;15.14;67.97;101565.69;4923248;28;120139;-75
2022/10/29 05:57:49;;;;;;;25.10;6.07;;;;;;;15.15;67.93;101565.25;4922364;28;120166;-76
2022/10/29 06:00:15;;;;;;;27.10;5.83;;;;;;;15.13;67.89;101570.44;4902328;28;120166;-76
2022/10/29 06:02:43;;;;;;;29.38;5.63;;;;;;;15.10;68.20;101576.91;4900922;28;121333;-75
2022/10/29 06:05:09;;;;;;;27.80;6.63;;;;;;;15.09;68.27;101569.06;4917560;28;120460;-75
2022/10/29 06:07:34;;;;;;;25.15;6.75;;;;;;;15.08;68.60;101564.78;4925426;28;120294;-75
2022/10/29 06:10:00;;;;;;;25.63;7.15;;;;;;;15.08;68.55;101573.06;4918797;28;120162;-75
2022/10/29 06:12:25;;;;;;;29.08;6.60;;;;;;;15.06;68.10;101579.06;4920744;28;119778;-75
2022/10/29 06:14:51;;;;;;;25.37;6.70;;;;;;;14.99;68.08;101577.38;4918842;28;120209;-75
2022/10/29 06:17:17;;;;;;;27.80;6.83;;;;;;;15.00;68.04;101578.13;4921610;28;120422;-75
2022/10/29 06:19:42;;;;;;;26.57;6.90;;;;;;;15.02;68.15;101592.25;4922351;28;120129;-76
2022/10/29 06:22:08;;;;;;;28.10;7.00;;;;;;;15.00;68.54;101591.94;4889044;28;120119;-75
2022/10/29 06:24:34;;;;;;;28.57;7.03;;;;;;;14.98;68.26;101580.59;4919119;28;120345;-75
2022/10/29 06:26:59;;;;;;;25.70;6.83;;;;;;;14.93;68.47;101579.22;4920047;28;119972;-75
2022/10/29 06:29:25;;;;;;;28.57;6.73;;;;;;;14.95;68.27;101593.34;4924359;28;120470;-74
2022/10/29 06:31:53;;;;;;;23.57;6.27;;;;;;;14.95;68.46;101592.56;4885805;28;120208;-75
2022/10/29 06:34:18;;;;;;;25.80;6.40;;;;;;;14.93;68.51;101601.31;4918389;28;119879;-75
2022/10/29 06:36:44;;;;;;;24.10;6.60;;;;;;;14.94;68.30;101604.84;4920623;28;119959;-75
2022/10/29 06:39:10;;;;;;;27.00;7.27;;;;;;;14.94;67.99;101596.56;4918111;28;120443;-75
2022/10/29 06:41:35;;;;;;;33.03;7.10;;;;;;;14.95;68.07;101595.31;4918301;28;119961;-75
2022/10/29 06:44:01;;;;;;;27.30;7.33;;;;;;;14.95;68.34;101600.84;4903033;28;121340;-74
2022/10/29 06:46:27;;;;;;;22.63;7.17;;;;;;;14.90;68.82;101598.66;4918528;28;119945;-75
2022/10/29 06:48:53;;;;;;;29.10;7.93;;;;;;;14.96;68.82;101608.69;4922912;28;120532;-74
2022/10/29 06:51:18;;;;;;;22.27;7.47;;;;;;;14.98;68.78;101603.47;4902579;28;120584;-75
2022/10/29 06:53:44;;;;;;;24.57;7.43;;;;;;;15.02;69.15;101603.31;4919602;28;119860;-76
2022/10/29 06:56:09;;;;;;;30.53;7.87;;;;;;;15.04;68.71;101601.63;4920893;28;120060;-75
2022/10/29 06:58:35;;;;;;;24.83;7.40;;;;;;;15.00;69.08;101597.47;4920559;28;119678;-75
2022/10/29 07:01:01;;;;;;;29.40;8.03;;;;;;;15.09;68.79;101607.75;4921189;28;120443;-75
2022/10/29 07:03:26;;;;;;;28.63;8.23;;;;;;;15.10;69.10;101607.31;4918256;28;120144;-75
2022/10/29 07:05:56;;;;;;;25.00;7.82;;;;;;;15.13;69.32;101611.91;4919471;28;120125;-75
2022/10/29 07:08:45;;;;;;;22.25;7.38;;;;;;;15.11;69.58;101606.06;4878586;28;121365;-75
2022/10/29 07:11:10;;;;;;;30.30;7.43;;;;;;;15.20;69.11;101608.88;4883242;28;121052;-75
2022/10/29 07:13:36;;;;;;;22.58;6.97;;;;;;;15.25;68.88;101607.47;4881280;28;119864;-77
2022/10/29 07:16:02;;;;;;;27.85;7.25;;;;;;;15.24;70.02;101612.22;4882670;28;120867;-77
2022/10/29 07:18:28;;;;;;;21.55;6.25;;;;;;;15.36;69.06;101613.31;4883382;28;120588;-75
2022/10/29 07:20:53;;;;;;;24.53;6.80;;;;;;;15.44;69.04;101611.00;4881645;28;119944;-74
2022/10/29 07:23:19;;;;;;;24.37;6.70;;;;;;;15.53;69.79;101605.47;4881076;28;120436;-77
2022/10/29 07:25:45;;;;;;;22.05;6.00;;;;;;;15.60;69.14;101605.94;4866492;28;119862;-77
2022/10/29 07:28:16;;;;;;;23.02;6.10;;;;;;;15.67;68.61;101607.66;4888361;28;119975;-76
2022/10/29 07:30:43;;;;;;;24.90;6.68;;;;;;;15.75;68.83;101608.84;4922979;28;120293;-76
2022/10/29 07:33:09;;;;;;;21.52;6.70;;;;;;;15.82;68.44;101610.53;4924727;28;120396;-76
2022/10/29 07:35:35;;;;;;;21.70;6.20;;;;;;;15.84;68.62;101613.59;4919857;28;120024;-77
2022/10/29 07:38:04;;;;;;;23.98;6.75;;;;;;;15.92;68.93;101623.88;4922059;28;120212;-74
2022/10/29 07:40:29;;;;;;;17.77;5.23;;;;;;;15.99;68.96;101622.03;4921461;28;119886;-75
2022/10/29 07:42:55;;;;;;;23.53;5.47;;;;;;;16.04;68.41;101624.16;4921162;28;120352;-74
2022/10/29 07:45:21;;;;;;;22.23;5.30;;;;;;;16.12;68.70;101630.91;4917660;28;119938;-77
2022/10/29 07:47:47;;;;;;;22.50;6.00;;;;;;;16.15;69.06;101618.91;4923978;28;120240;-77
2022/10/29 07:50:13;;;;;;;20.08;5.28;;;;;;;16.22;68.55;101629.66;4921861;28;120660;-74
2022/10/29 07:52:39;;;;;;;25.60;5.70;;;;;;;16.25;68.31;101623.16;4920643;28;119729;-77
2022/10/29 07:55:08;;;;;;;20.70;5.37;;;;;;;16.29;68.22;101634.84;4924409;28;120060;-76
2022/10/29 07:57:33;;;;;;;22.25;5.40;;;;;;;16.31;67.79;101631.59;4919402;28;120182;-77
2022/10/29 07:59:59;;;;;;;24.65;6.13;;;;;;;16.44;68.04;101635.72;4909420;28;120076;-77
2022/10/29 08:02:27;;;;;;;20.40;5.35;;;;;;;16.51;68.45;101635.38;4914790;28;120353;-76
2022/10/29 08:04:53;;;;;;;18.27;5.00;;;;;;;16.58;67.84;101640.59;4899875;28;120180;-77
2022/10/29 08:07:18;;;;;;;25.60;5.18;;;;;;;16.57;67.31;101641.81;4919580;28;120392;-77
2022/10/29 08:09:44;;;;;;;25.65;5.20;;;;;;;16.64;67.96;101642.72;4918572;28;120086;-77
2022/10/29 08:12:13;;;;;;;22.85;5.50;;;;;;;16.71;67.86;101645.94;4921604;28;119749;-76
2022/10/29 08:14:43;;;;;;;23.97;5.13;;;;;;;16.76;67.98;101650.81;4919785;28;120075;-76
2022/10/29 08:17:31;;;;;;;20.15;4.50;;;;;;;16.88;67.43;101660.16;4918925;28;120115;-77
2022/10/29 08:19:57;;;;;;;19.42;4.65;;;;;;;16.95;67.52;101659.81;4921799;28;120069;-77
2022/10/29 08:22:23;;;;;;;19.50;4.85;;;;;;;16.99;67.34;101657.63;4918344;28;120388;-76
2022/10/29 08:24:48;;;;;;;19.58;4.57;;;;;;;17.00;66.43;101659.16;4917297;28;120259;-76
2022/10/29 08:27:14;;;;;;;20.15;4.70;;;;;;;17.01;66.97;101671.78;4907043;28;120217;-77
2022/10/29 08:29:40;;;;;;;18.95;4.82;;;;;;;16.95;67.04;101653.50;4919773;28;120471;-76
2022/10/29 08:32:06;;;;;;;21.88;4.80;;;;;;;17.04;67.13;101665.31;4920613;28;120974;-77
2022/10/29 08:34:31;;;;;;;22.30;4.65;;;;;;;17.09;67.18;101661.88;4902557;28;119741;-76
2022/10/29 08:36:57;;;;;;;22.10;5.03;;;;;;;17.12;67.10;101655.41;4919745;28;120408;-76
2022/10/29 08:39:33;;;;;;;19.40;4.43;;;;;;;17.15;67.23;101642.59;4921803;28;119482;-76
2022/10/29 08:41:58;;;;;;;20.15;5.07;;;;;;;17.18;67.07;101647.94;4914959;28;120087;-77
2022/10/29 08:44:27;;;;;;;21.23;4.80;;;;;;;17.23;67.10;101648.53;4909966;28;120228;-76
2022/10/29 08:47:21;;;;;;;20.60;4.60;;;;;;;17.22;67.07;101653.31;4920015;28;119521;-76
2022/10/29 08:49:55;;;;;;;18.63;4.70;;;;;;;17.23;66.90;101648.53;4920626;28;120554;-76
2022/10/29 08:52:24;;;;;;;22.30;4.90;;;;;;;17.21;67.17;101648.25;4922780;28;120039;-76
2022/10/29 08:55:03;;;;;;;20.58;4.82;;;;;;;17.22;67.20;101635.91;4920687;28;120013;-76
2022/10/29 08:57:32;;;;;;;20.48;5.00;;;;;;;17.25;67.35;101629.41;4919050;28;120016;-77
2022/10/29 09:00:11;;;;;;;19.83;5.05;;;;;;;17.37;67.91;101642.28;4921470;28;120062;-75
2022/10/29 09:02:39;;;;;;;19.67;4.80;;;;;;;17.43;67.69;101632.06;4914510;28;119712;-76
2022/10/29 09:05:11;;;;;;;21.38;4.88;;;;;;;17.49;67.28;101641.25;4915613;28;120545;-77
2022/10/29 09:08:02;;;;;;;23.70;4.82;;;;;;;17.53;67.52;101627.22;4901067;28;121026;-77
2022/10/29 09:10:31;;;;;;;21.50;5.55;;;;;;;17.61;67.26;101637.44;4916241;28;119721;-77
2022/10/29 09:13:38;;;;;;;24.88;5.70;;;;;;;17.68;67.13;101636.34;4913854;28;120404;-76
2022/10/29 09:16:13;;;;;;;21.33;5.70;;;;;;;17.74;66.87;101637.19;4907637;28;121630;-76
2022/10/29 09:19:03;;;;;;;18.50;5.67;;;;;;;17.81;67.50;101624.97;4917433;28;120652;-76
2022/10/29 09:21:54;;;;;;;21.93;6.13;;;;;;;17.90;67.85;101627.63;4888663;28;120181;-75
2022/10/29 09:24:31;;;;;;;20.10;6.53;;;;;;;18.01;67.72;101625.84;4923607;28;119981;-77
2022/10/29 09:27:10;;;;;;;23.70;6.65;;;;;;;18.11;67.59;101626.50;4919248;28;120292;-77
2022/10/29 09:30:29;;;;;;;23.10;6.43;;;;;;;18.23;67.18;101627.44;4919977;28;119714;-76
2022/10/29 09:32:58;;;;;;;18.83;5.97;;;;;;;18.35;67.33;101623.59;4899378;28;121788;-77
2022/10/29 09:35:54;;;;;;;22.25;6.18;;;;;;;18.48;67.46;101612.19;4909342;28;120987;-76
2022/10/29 09:38:28;;;;;;;22.67;6.35;;;;;;;18.58;66.89;101616.34;4918575;28;119978;-75
2022/10/29 09:40:57;;;;;;;19.05;6.15;;;;;;;18.65;67.04;101602.84;4918746;28;120200;-75
2022/10/29 09:43:45;;;;;;;19.97;5.77;;;;;;;18.66;66.10;101593.25;4920926;28;120473;-77
2022/10/29 09:46:38;;;;;;;23.02;6.20;;;;;;;18.80;65.87;101594.44;4921491;28;120130;-77
2022/10/29 09:49:22;;;;;;;20.30;6.07;;;;;;;18.82;65.55;101591.94;4923159;28;119677;-76
2022/10/29 09:51:53;;;;;;;17.13;5.80;;;;;;;18.84;65.20;101592.22;4921259;28;120137;-77
2022/10/29 09:54:22;;;;;;;23.27;6.30;;;;;;;18.81;65.84;101579.31;4887504;28;121131;-77
2022/10/29 09:56:48;;;;;;;17.17;5.93;;;;;;;18.83;65.56;101589.94;4920954;28;120022;-77
2022/10/29 09:59:33;;;;;;;17.67;5.85;;;;;;;18.85;64.95;101587.44;4905909;28;121246;-77
2022/10/29 10:01:59;;;;;;;18.05;5.53;;;;;;;18.84;65.30;101585.91;4904681;28;120201;-76
2022/10/29 10:04:39;;;;;;;17.95;5.72;;;;;;;18.83;65.18;101585.13;4905839;28;120016;-77
2022/10/29 10:07:11;;;;;;;19.60;5.93;;;;;;;18.84;65.26;101572.78;4921312;28;119700;-77
2022/10/29 10:10:02;;;;;;;19.92;6.10;;;;;;;18.90;65.47;101589.50;4917603;28;120293;-77
2022/10/29 10:12:27;;;;;;;18.47;5.60;;;;;;;18.94;65.54;101590.09;4917870;28;120251;-77
2022/10/29 10:15:03;;;;;;;19.80;5.70;;;;;;;18.98;65.80;101599.75;4916782;28;119809;-77
2022/10/29 10:17:55;;;;;;;18.08;4.80;;;;;;;19.05;65.01;101595.78;4917511;28;120805;-77
2022/10/29 10:20:29;;;;;;;15.48;4.70;;;;;;;19.12;65.62;101602.91;4916941;28;121139;-77
2022/10/29 10:22:55;;;;;;;17.23;4.55;;;;;;;19.16;64.99;101600.69;4917209;28;120359;-74
2022/10/29 10:25:48;;;;;;;14.55;4.10;;;;;;;19.17;64.72;101603.00;4894781;28;120175;-77
2022/10/29 10:28:18;;;;;;;15.40;3.90;;;;;;;19.26;63.90;101604.88;4919659;28;121385;-76
2022/10/29 10:31:05;;;;;;;14.63;4.22;;;;;;;19.29;63.98;101598.31;4914363;28;119746;-74
2022/10/29 10:33:33;;;;;;;16.90;4.35;;;;;;;19.28;63.73;101594.78;4919092;28;120290;-78
2022/10/29 10:36:03;;;;;;;14.80;4.00;;;;;;;19.29;63.95;101599.09;4912020;28;120285;-77
2022/10/29 10:38:42;;;;;;;14.52;4.60;;;;;;;19.30;63.78;101611.75;4923955;28;119969;-77
2022/10/29 10:41:32;;;;;;;13.98;4.90;;;;;;;19.33;63.96;101607.22;4906274;28;120194;-77
2022/10/29 10:44:00;;;;;;;16.70;5.13;;;;;;;19.38;64.08;101600.19;4921552;28;120539;-76
2022/10/29 10:46:42;;;;;;;16.95;5.32;;;;;;;19.42;64.51;101600.75;4920039;28;120119;-77
2022/10/29 10:49:13;;;;;;;19.23;5.63;;;;;;;19.55;64.31;101604.69;4919685;28;120390;-76
2022/10/29 10:51:43;;;;;;;20.85;7.13;;;;;;;19.59;64.06;101598.91;4908155;28;120926;-77
2022/10/29 10:54:25;;;;;;;15.63;6.18;;;;;;;19.47;64.21;101602.81;4903629;28;121170;-77
2022/10/29 10:57:01;;;;;;;18.27;6.47;;;;;;;19.33;64.69;101584.97;4925242;28;120095;-77
2022/10/29 11:00:00;;;;;;;17.27;6.97;;;;;;;19.43;64.97;101596.72;4920854;28;120451;-76
2022/10/29 11:02:47;;;;;;;15.23;7.75;;;;;;;19.56;64.45;101600.66;4909408;28;120524;-77
2022/10/29 11:05:17;;;;;;;19.92;8.43;;;;;;;19.58;64.71;101608.53;4922911;28;120028;-76
2022/10/29 11:07:53;;;;;;;17.73;9.05;;;;;;;19.61;64.52;101613.88;4919987;28;120410;-76
2022/10/29 11:10:26;;;;;;;17.88;9.85;;;;;;;19.62;64.33;101606.28;4904038;28;120728;-77
2022/10/29 11:12:55;;;;;;;17.23;10.05;;;;;;;19.63;63.88;101602.25;4908875;28;120726;-76
2022/10/29 11:15:38;;;;;;;18.90;11.13;;;;;;;19.61;63.99;101610.31;4915326;28;120247;-76
2022/10/29 11:18:23;;;;;;;19.60;12.18;;;;;;;19.56;64.07;101606.22;4914849;28;120057;-76
2022/10/29 11:21:09;;;;;;;20.17;12.23;;;;;;;19.48;64.49;101599.56;4905532;28;120745;-76
2022/10/29 11:24:00;;;;;;;22.95;13.25;;;;;;;19.53;65.32;101603.63;4915760;28;120157;-77
2022/10/29 11:26:44;;;;;;;23.05;13.48;;;;;;;19.58;64.56;101591.81;4915471;28;120764;-76
2022/10/29 11:29:27;;;;;;;23.02;14.63;;;;;;;19.63;64.81;101600.22;4916091;28;120171;-77